createdAt,value
2019-01-06T00:01:57.563Z,21.57
2019-01-06T00:04:26.118Z,19.43
2019-01-06T00:07:10.962Z,20.23
2019-01-06T00:09:39.535Z,18.83
2019-01-06T00:12:15.666Z,22.53
2019-01-06T00:14:46.727Z,20.73
2019-01-06T00:17:31.562Z,18.90
2019-01-06T00:20:18.349Z,19.70
2019-01-06T00:22:49.636Z,22.50
2019-01-06T00:25:24.029Z,18.70
2019-01-06T00:28:04.544Z,20.57
2019-01-06T00:30:35.935Z,22.53
2019-01-06T00:33:04.651Z,22.10
2019-01-06T00:35:39.939Z,22.00
2019-01-06T00:38:08.448Z,21.37
2019-01-06T00:40:39.839Z,23.97
2019-01-06T00:43:24.761Z,23.10
2019-01-06T00:45:59.215Z,20.27
2019-01-06T00:48:30.295Z,22.20
2019-01-06T00:51:14.479Z,19.67
2019-01-06T00:53:42.862Z,22.50
2019-01-06T00:56:11.919Z,22.83
2019-01-06T00:58:40.253Z,20.83
2019-01-06T01:01:25.665Z,23.70
2019-01-06T01:03:54.256Z,25.10
2019-01-06T01:06:28.400Z,25.63
2019-01-06T01:09:01.139Z,23.07
2019-01-06T01:11:46.002Z,28.43
2019-01-06T01:14:14.503Z,32.23
2019-01-06T01:16:52.050Z,24.70
2019-01-06T01:19:20.490Z,24.50
2019-01-06T01:22:07.069Z,28.80
2019-01-06T01:24:41.312Z,26.07
2019-01-06T01:27:18.851Z,26.13
2019-01-06T01:30:04.274Z,29.63
2019-01-06T01:32:35.333Z,28.37
2019-01-06T01:35:03.888Z,27.13
2019-01-06T01:37:32.208Z,30.63
2019-01-06T01:40:09.304Z,26.70
2019-01-06T01:42:40.349Z,25.03
2019-01-06T01:45:25.644Z,26.50
2019-01-06T01:47:54.195Z,24.70
2019-01-06T01:50:22.537Z,27.43
2019-01-06T01:52:59.785Z,26.93
2019-01-06T01:55:28.194Z,26.83
2019-01-06T01:58:13.089Z,25.90
2019-01-06T02:00:44.389Z,30.27
2019-01-06T02:03:12.806Z,28.93
2019-01-06T02:05:56.191Z,25.07
2019-01-06T02:08:42.861Z,30.30
2019-01-06T02:11:26.383Z,28.17
2019-01-06T02:14:00.414Z,28.70
2019-01-06T02:16:28.911Z,25.40
2019-01-06T02:19:13.717Z,30.43
2019-01-06T02:22:00.330Z,31.73
2019-01-06T02:24:38.385Z,30.93
2019-01-06T02:27:06.851Z,28.50
2019-01-06T02:29:35.504Z,28.53
2019-01-06T02:32:15.669Z,34.60
2019-01-06T02:34:56.141Z,32.33
2019-01-06T02:37:24.601Z,28.53
2019-01-06T02:39:58.723Z,28.43
2019-01-06T02:42:43.957Z,29.77
2019-01-06T02:45:24.576Z,33.17
2019-01-06T02:47:56.048Z,34.70
2019-01-06T02:50:27.317Z,31.53
2019-01-06T02:53:00.699Z,33.00
2019-01-06T02:55:29.197Z,33.23
2019-01-06T02:58:14.206Z,34.27
2019-01-06T03:00:46.649Z,27.60
2019-01-06T03:03:14.951Z,28.30
2019-01-06T03:05:52.117Z,27.87
2019-01-06T03:08:20.546Z,30.80
2019-01-06T03:10:51.859Z,27.37
2019-01-06T03:13:32.322Z,22.83
2019-01-06T03:16:00.849Z,25.23
2019-01-06T03:18:29.479Z,19.83
2019-01-06T03:21:15.598Z,25.33
2019-01-06T03:23:49.939Z,23.37
2019-01-06T03:26:24.080Z,23.97
2019-01-06T03:28:58.746Z,22.73
2019-01-06T03:31:35.833Z,20.03
2019-01-06T03:34:06.922Z,24.97
2019-01-06T03:36:42.188Z,21.63
2019-01-06T03:39:25.903Z,21.53
2019-01-06T03:42:03.285Z,19.97
2019-01-06T03:44:48.889Z,23.40
2019-01-06T03:47:17.254Z,22.00
2019-01-06T03:50:00.890Z,23.30
2019-01-06T03:52:29.376Z,19.53
2019-01-06T03:55:14.168Z,19.80
2019-01-06T03:58:00.820Z,20.33
2019-01-06T04:00:45.830Z,25.20
2019-01-06T04:03:14.306Z,21.10
2019-01-06T04:05:45.440Z,21.73
2019-01-06T04:08:22.520Z,18.00
2019-01-06T04:11:15.082Z,19.57
2019-01-06T04:13:56.527Z,15.87
2019-01-06T04:16:33.854Z,19.30
2019-01-06T04:19:18.887Z,18.73
2019-01-06T04:21:53.163Z,19.60
2019-01-06T04:24:27.359Z,21.43
2019-01-06T04:27:04.803Z,23.87
2019-01-06T04:29:33.096Z,24.60
2019-01-06T04:32:10.481Z,19.70
2019-01-06T04:34:41.946Z,20.90
2019-01-06T04:37:19.549Z,18.97
2019-01-06T04:39:53.700Z,20.13
2019-01-06T04:42:38.825Z,21.23
2019-01-06T04:45:13.335Z,19.87
2019-01-06T04:47:44.929Z,21.27
2019-01-06T04:50:22.959Z,19.93
2019-01-06T04:53:08.271Z,17.87
2019-01-06T04:55:36.804Z,18.97
2019-01-06T04:58:11.385Z,20.43
2019-01-06T05:00:56.700Z,26.47
2019-01-06T05:03:35.323Z,19.53
2019-01-06T05:06:20.428Z,19.67
2019-01-06T05:09:05.602Z,22.57
2019-01-06T05:11:40.142Z,20.63
2019-01-06T05:14:25.033Z,16.57
2019-01-06T05:17:13.803Z,17.53
2019-01-06T05:19:54.254Z,15.97
2019-01-06T05:22:28.655Z,23.60
2019-01-06T05:25:13.882Z,18.33
2019-01-06T05:27:54.701Z,20.13
2019-01-06T05:30:35.347Z,23.03
2019-01-06T05:33:12.709Z,22.23
2019-01-06T05:35:49.810Z,17.83
2019-01-06T05:38:24.290Z,22.80
2019-01-06T05:40:53.311Z,21.37
2019-01-06T05:43:38.501Z,18.93
2019-01-06T05:46:09.769Z,19.43
2019-01-06T05:48:55.049Z,20.33
2019-01-06T05:51:26.207Z,18.87
2019-01-06T05:53:57.266Z,18.27
2019-01-06T05:56:28.787Z,24.10
2019-01-06T05:59:00.168Z,19.23
2019-01-06T06:01:45.398Z,20.33
2019-01-06T06:04:31.309Z,23.07
2019-01-06T06:07:15.092Z,18.30
2019-01-06T06:09:49.078Z,16.40
2019-01-06T06:12:26.595Z,20.93
2019-01-06T06:15:11.497Z,17.67
2019-01-06T06:17:46.117Z,23.57
2019-01-06T06:20:17.493Z,21.70
2019-01-06T06:23:04.783Z,17.97
2019-01-06T06:25:51.422Z,21.23
2019-01-06T06:28:36.666Z,17.00
2019-01-06T06:31:15.681Z,24.00
2019-01-06T06:33:49.962Z,20.97
2019-01-06T06:36:27.426Z,18.80
2019-01-06T06:39:12.340Z,25.13
2019-01-06T06:41:57.350Z,22.30
2019-01-06T06:44:25.761Z,19.30
2019-01-06T06:46:57.109Z,18.17
2019-01-06T06:49:34.554Z,19.77
2019-01-06T06:52:02.985Z,16.20
2019-01-06T06:54:34.475Z,20.27
2019-01-06T06:57:40.171Z,18.50
2019-01-06T07:00:31.964Z,14.37
2019-01-06T07:03:13.245Z,23.67
2019-01-06T07:05:41.892Z,16.90
2019-01-06T07:08:10.370Z,18.90
2019-01-06T07:10:56.985Z,18.83
2019-01-06T07:13:37.360Z,19.37
2019-01-06T07:16:09.566Z,20.00
2019-01-06T07:18:38.220Z,18.47
2019-01-06T07:21:13.087Z,21.60
2019-01-06T07:23:44.720Z,20.57
2019-01-06T07:26:16.029Z,20.47
2019-01-06T07:28:47.097Z,21.10
2019-01-06T07:31:32.264Z,25.27
2019-01-06T07:34:03.558Z,22.27
2019-01-06T07:36:32.016Z,25.60
2019-01-06T07:39:06.276Z,21.43
2019-01-06T07:41:51.152Z,24.07
2019-01-06T07:44:36.295Z,22.40
2019-01-06T07:47:10.783Z,26.07
2019-01-06T07:49:51.408Z,27.40
2019-01-06T07:52:22.551Z,21.17
2019-01-06T07:55:02.835Z,22.23
2019-01-06T07:57:34.370Z,21.30
2019-01-06T08:00:19.387Z,28.07
2019-01-06T08:03:04.451Z,22.63
2019-01-06T08:05:51.096Z,23.40
2019-01-06T08:08:34.615Z,24.40
2019-01-06T08:11:21.011Z,26.13
2019-01-06T08:14:06.041Z,23.27
2019-01-06T08:16:49.373Z,22.27
2019-01-06T08:19:36.002Z,24.97
2019-01-06T08:22:04.420Z,27.07
2019-01-06T08:24:35.478Z,25.67
2019-01-06T08:27:20.560Z,22.90
2019-01-06T08:29:50.171Z,20.80
2019-01-06T08:32:18.756Z,22.57
2019-01-06T08:34:47.563Z,20.17
2019-01-06T08:37:27.492Z,18.77
2019-01-06T08:39:58.989Z,21.60
2019-01-06T08:42:39.398Z,23.00
2019-01-06T08:45:21.340Z,23.63
2019-01-06T08:48:06.343Z,24.57
2019-01-06T08:50:34.740Z,22.67
2019-01-06T08:53:19.683Z,26.47
2019-01-06T08:56:04.837Z,21.77
2019-01-06T08:58:48.938Z,27.20
2019-01-06T09:01:23.590Z,23.90
2019-01-06T09:03:54.963Z,21.17
2019-01-06T09:06:29.124Z,22.33
2019-01-06T09:08:58.068Z,24.17
2019-01-06T09:11:41.547Z,23.03
2019-01-06T09:14:09.942Z,20.67
2019-01-06T09:16:41.409Z,22.37
2019-01-06T09:19:21.745Z,21.97
2019-01-06T09:21:56.810Z,22.10
2019-01-06T09:24:27.984Z,17.93
2019-01-06T09:26:56.536Z,24.87
2019-01-06T09:29:42.273Z,18.27
2019-01-06T09:32:13.552Z,18.97
2019-01-06T09:34:42.339Z,20.40
2019-01-06T09:37:11.823Z,17.53
2019-01-06T09:39:40.884Z,19.97
2019-01-06T09:42:12.382Z,19.93
2019-01-06T09:44:49.610Z,20.07
2019-01-06T09:47:29.942Z,20.70
2019-01-06T09:50:13.424Z,17.70
2019-01-06T09:52:41.886Z,18.43
2019-01-06T09:55:16.405Z,20.80
2019-01-06T09:57:48.849Z,15.00
2019-01-06T10:00:20.304Z,19.87
2019-01-06T10:02:48.931Z,17.63
2019-01-06T10:05:23.369Z,17.43
2019-01-06T10:08:08.354Z,19.50
2019-01-06T10:10:39.757Z,21.73
2019-01-06T10:13:08.108Z,18.80
2019-01-06T10:15:53.108Z,20.87
2019-01-06T10:18:25.755Z,19.67
2019-01-06T10:21:11.682Z,17.03
2019-01-06T10:23:46.039Z,17.50
2019-01-06T10:26:32.235Z,16.10
2019-01-06T10:29:00.762Z,15.87
2019-01-06T10:31:29.292Z,15.07
2019-01-06T10:34:14.174Z,16.27
2019-01-06T10:37:00.734Z,16.30
2019-01-06T10:39:47.684Z,19.57
2019-01-06T10:42:31.068Z,16.97
2019-01-06T10:44:59.472Z,16.60
2019-01-06T10:47:39.810Z,13.03
2019-01-06T10:50:12.392Z,17.27
2019-01-06T10:52:52.861Z,15.40
2019-01-06T10:55:24.045Z,15.80
2019-01-06T10:57:52.504Z,14.00
2019-01-06T11:00:21.101Z,16.80
2019-01-06T11:02:49.802Z,17.60
2019-01-06T11:05:26.649Z,14.03
2019-01-06T11:08:09.123Z,15.00
2019-01-06T11:10:46.906Z,13.70
2019-01-06T11:13:21.927Z,14.83
2019-01-06T11:15:50.801Z,15.97
2019-01-06T11:18:34.463Z,13.97
2019-01-06T11:21:05.610Z,16.03
2019-01-06T11:23:40.017Z,10.50
2019-01-06T11:26:24.878Z,12.23
2019-01-06T11:29:11.494Z,18.93
2019-01-06T11:31:39.950Z,15.20
2019-01-06T11:34:24.927Z,19.87
2019-01-06T11:37:02.339Z,11.50
2019-01-06T11:39:35.926Z,13.40
2019-01-06T11:42:20.750Z,14.10
2019-01-06T11:44:56.347Z,12.77
2019-01-06T11:47:33.973Z,14.93
2019-01-06T11:50:13.848Z,12.70
2019-01-06T11:52:42.402Z,15.17
2019-01-06T11:55:24.115Z,10.87
2019-01-06T11:57:58.617Z,14.97
2019-01-06T12:00:27.410Z,11.80
2019-01-06T12:02:58.531Z,10.77
2019-01-06T12:05:30.269Z,15.83
2019-01-06T12:08:05.742Z,12.33
2019-01-06T12:10:40.064Z,14.87
2019-01-06T12:13:08.966Z,10.53
2019-01-06T12:15:53.931Z,10.13
2019-01-06T12:18:40.695Z,9.27
2019-01-06T12:21:17.805Z,13.53
2019-01-06T12:23:46.396Z,11.03
2019-01-06T12:26:33.484Z,14.63
2019-01-06T12:29:16.987Z,10.37
2019-01-06T12:32:01.967Z,9.63
2019-01-06T12:34:36.307Z,10.63
2019-01-06T12:37:19.710Z,8.90
2019-01-06T12:40:06.621Z,8.30
2019-01-06T12:42:35.232Z,9.13
2019-01-06T12:45:06.809Z,11.70
2019-01-06T12:47:38.265Z,10.13
2019-01-06T12:50:11.669Z,9.93
2019-01-06T12:52:40.237Z,8.57
2019-01-06T12:55:20.763Z,7.80
2019-01-06T12:58:04.445Z,12.57
2019-01-06T13:00:43.553Z,10.37
2019-01-06T13:03:28.609Z,9.43
2019-01-06T13:05:59.933Z,12.77
2019-01-06T13:08:35.263Z,7.80
2019-01-06T13:11:03.769Z,7.80
2019-01-06T13:13:48.653Z,7.43
2019-01-06T13:16:26.149Z,6.90
2019-01-06T13:18:54.542Z,7.63
2019-01-06T13:21:22.990Z,9.40
2019-01-06T13:23:51.322Z,6.87
2019-01-06T13:26:19.781Z,8.53
2019-01-06T13:29:00.011Z,8.77
2019-01-06T13:31:31.334Z,8.97
2019-01-06T13:33:59.886Z,9.50
2019-01-06T13:36:43.560Z,6.83
2019-01-06T13:39:29.276Z,7.70
2019-01-06T13:41:58.469Z,6.77
2019-01-06T13:44:32.900Z,7.43
2019-01-06T13:47:16.597Z,7.67
2019-01-06T13:49:45.131Z,10.00
2019-01-06T13:52:30.096Z,11.10
2019-01-06T13:55:12.805Z,8.47
2019-01-06T13:57:56.321Z,9.00
2019-01-06T14:00:24.761Z,8.23
2019-01-06T14:03:06.819Z,10.43
2019-01-06T14:05:51.696Z,8.47
2019-01-06T14:08:26.318Z,8.17
2019-01-06T14:11:10.705Z,10.30
2019-01-06T14:13:47.871Z,5.17
2019-01-06T14:16:25.477Z,7.60
2019-01-06T14:19:10.571Z,6.47
2019-01-06T14:21:47.921Z,6.70
2019-01-06T14:24:32.907Z,6.77
2019-01-06T14:27:19.616Z,9.87
2019-01-06T14:30:00.225Z,8.97
2019-01-06T14:32:42.217Z,8.97
2019-01-06T14:35:10.677Z,11.63
2019-01-06T14:37:39.129Z,11.40
2019-01-06T14:40:26.139Z,9.60
2019-01-06T14:43:03.741Z,6.73
2019-01-06T14:45:40.747Z,8.17
2019-01-06T14:48:11.946Z,8.63
2019-01-06T14:50:57.127Z,8.57
2019-01-06T14:53:46.671Z,11.47
2019-01-06T14:56:15.129Z,7.50
2019-01-06T14:59:00.076Z,9.53
2019-01-06T15:01:28.446Z,9.30
2019-01-06T15:04:02.566Z,6.93
2019-01-06T15:06:31.547Z,10.33
2019-01-06T15:09:16.554Z,10.77
2019-01-06T15:11:51.034Z,7.93
2019-01-06T15:14:32.045Z,8.67
2019-01-06T15:17:03.447Z,10.87
2019-01-06T15:19:44.032Z,9.80
2019-01-06T15:22:12.786Z,9.17
2019-01-06T15:24:46.841Z,13.13
2019-01-06T15:27:30.237Z,15.40
2019-01-06T15:30:15.106Z,9.93
2019-01-06T15:32:46.567Z,11.37
2019-01-06T15:35:14.920Z,14.47
2019-01-06T15:37:45.945Z,12.80
2019-01-06T15:40:30.926Z,11.13
2019-01-06T15:43:05.236Z,10.97
2019-01-06T15:45:50.313Z,12.77
2019-01-06T15:48:21.857Z,14.97
2019-01-06T15:51:08.509Z,14.67
2019-01-06T15:53:37.044Z,12.03
2019-01-06T15:56:08.115Z,14.57
2019-01-06T15:58:51.725Z,16.27
2019-01-06T16:01:23.233Z,14.30
2019-01-06T16:03:54.307Z,15.50
2019-01-06T16:06:39.586Z,13.93
2019-01-06T16:09:26.598Z,17.50
2019-01-06T16:12:11.844Z,17.37
2019-01-06T16:14:42.911Z,15.97
2019-01-06T16:17:14.262Z,15.80
2019-01-06T16:19:59.588Z,16.70
2019-01-06T16:22:44.509Z,17.53
2019-01-06T16:25:25.357Z,17.90
2019-01-06T16:28:09.047Z,16.97
2019-01-06T16:30:54.213Z,21.60
2019-01-06T16:33:32.223Z,19.00
2019-01-06T16:36:18.982Z,18.07
2019-01-06T16:39:00.515Z,18.03
2019-01-06T16:41:31.825Z,18.77
2019-01-06T16:44:09.174Z,17.43
2019-01-06T16:48:09.963Z,17.20
2019-01-06T16:50:39.846Z,15.10
2019-01-06T16:53:21.539Z,19.60
2019-01-06T16:55:52.098Z,18.50
2019-01-06T16:58:23.187Z,18.83
2019-01-06T17:00:51.670Z,20.37
2019-01-06T17:03:22.272Z,24.53
2019-01-06T17:06:02.948Z,19.70
2019-01-06T17:08:40.299Z,23.33
2019-01-06T17:11:11.634Z,24.60
2019-01-06T17:13:40.108Z,25.53
2019-01-06T17:16:25.060Z,27.70
2019-01-06T17:18:56.412Z,27.87
2019-01-06T17:21:41.801Z,25.53
2019-01-06T17:24:25.385Z,30.93
2019-01-06T17:26:59.858Z,27.80
2019-01-06T17:29:31.144Z,29.43
2019-01-06T17:32:15.953Z,38.90
2019-01-06T17:34:56.582Z,30.83
2019-01-06T17:37:40.757Z,29.20
2019-01-06T17:40:26.998Z,31.30
2019-01-06T17:43:13.936Z,32.67
2019-01-06T17:45:58.841Z,32.77
2019-01-06T17:48:34.486Z,29.97
2019-01-06T17:51:15.043Z,31.00
2019-01-06T17:53:58.674Z,29.30
2019-01-06T17:56:44.358Z,30.07
2019-01-06T17:59:29.491Z,30.83
2019-01-06T18:02:07.150Z,28.20
2019-01-06T18:04:55.055Z,31.87
2019-01-06T18:07:33.790Z,31.47
2019-01-06T18:10:11.024Z,28.27
2019-01-06T18:12:45.100Z,34.67
2019-01-06T18:15:18.282Z,30.93
2019-01-06T18:18:03.186Z,28.80
2019-01-06T18:20:48.530Z,27.93
2019-01-06T18:23:17.168Z,29.77
2019-01-06T18:26:02.367Z,32.67
2019-01-06T18:28:47.579Z,34.00
2019-01-06T18:31:36.704Z,32.47
2019-01-06T18:34:22.541Z,29.90
2019-01-06T18:37:07.698Z,30.10
2019-01-06T18:39:47.997Z,32.80
2019-01-06T18:42:22.349Z,28.50
2019-01-06T18:44:50.777Z,27.50
2019-01-06T18:47:21.824Z,29.33
2019-01-06T18:50:00.448Z,27.90
2019-01-06T18:52:40.841Z,31.23
2019-01-06T18:55:11.910Z,27.00
2019-01-06T18:57:47.992Z,28.03
2019-01-06T19:00:16.402Z,27.90
2019-01-06T19:02:44.730Z,31.30
2019-01-06T19:05:19.009Z,27.87
2019-01-06T19:08:02.471Z,28.17
2019-01-06T19:10:47.286Z,31.37
2019-01-06T19:13:18.629Z,28.93
2019-01-06T19:16:05.456Z,29.47
2019-01-06T19:18:45.704Z,33.10
2019-01-06T19:21:17.182Z,31.53
2019-01-06T19:23:48.485Z,32.30
2019-01-06T19:26:19.535Z,35.83
2019-01-06T19:28:50.826Z,37.47
2019-01-06T19:31:31.147Z,34.03
2019-01-06T19:34:02.506Z,35.53
2019-01-06T19:36:49.239Z,34.40
2019-01-06T19:39:34.406Z,35.53
2019-01-06T19:42:12.734Z,32.03
2019-01-06T19:44:56.126Z,38.87
2019-01-06T19:47:24.590Z,33.27
2019-01-06T19:50:03.306Z,35.07
2019-01-06T19:52:31.675Z,34.40
2019-01-06T19:55:00.368Z,36.57
2019-01-06T19:57:47.132Z,34.80
2019-01-06T20:00:29.204Z,36.53
2019-01-06T20:02:57.522Z,36.43
2019-01-06T20:05:42.691Z,33.60
2019-01-06T20:08:27.562Z,40.53
2019-01-06T20:11:12.012Z,34.07
2019-01-06T20:13:40.307Z,33.63
2019-01-06T20:16:26.304Z,33.83
2019-01-06T20:19:11.336Z,39.07
2019-01-06T20:21:51.844Z,36.17
2019-01-06T20:24:37.094Z,34.00
2019-01-06T20:27:08.582Z,33.93
2019-01-06T20:29:46.238Z,39.40
2019-01-06T20:32:32.121Z,40.17
2019-01-06T20:35:17.293Z,37.27
2019-01-06T20:37:50.453Z,37.43
2019-01-06T20:40:18.805Z,35.50
2019-01-06T20:43:02.180Z,34.07
2019-01-06T20:45:36.845Z,30.83
2019-01-06T20:48:21.992Z,35.30
2019-01-06T20:51:08.719Z,37.97
2019-01-06T20:53:55.002Z,33.77
2019-01-06T20:56:29.204Z,35.93
2019-01-06T20:59:14.348Z,32.47
2019-01-06T21:04:39.601Z,32.63
2019-01-06T21:07:23.122Z,31.53
2019-01-06T21:09:54.619Z,33.90
2019-01-06T21:12:29.149Z,37.03
2019-01-06T21:15:14.299Z,35.17
2019-01-06T21:17:54.766Z,31.73
2019-01-06T21:20:41.148Z,28.70
2019-01-06T21:23:26.289Z,29.13
2019-01-06T21:26:11.565Z,31.10
2019-01-06T21:28:56.676Z,33.73
2019-01-06T21:31:41.982Z,34.27
2019-01-06T21:34:22.583Z,28.63
2019-01-06T21:36:53.650Z,35.60
2019-01-06T21:39:38.328Z,34.07
2019-01-06T21:42:15.994Z,38.97
2019-01-06T21:44:44.426Z,36.10
2019-01-06T21:47:15.407Z,40.40
2019-01-06T21:49:52.831Z,42.60
2019-01-06T21:52:37.887Z,34.10
2019-01-06T21:55:18.989Z,39.03
2019-01-06T21:57:53.326Z,41.20
2019-01-06T22:00:40.214Z,37.43
2019-01-06T22:03:14.386Z,35.20
2019-01-06T22:05:54.937Z,37.70
2019-01-06T22:08:35.543Z,38.40
2019-01-06T22:11:19.190Z,37.33
2019-01-06T22:14:03.099Z,40.40
2019-01-06T22:16:37.198Z,36.87
2019-01-06T22:19:17.603Z,37.40
2019-01-06T22:21:46.110Z,37.03
2019-01-06T22:24:17.422Z,37.30
2019-01-06T22:26:45.859Z,34.47
2019-01-06T22:29:23.448Z,39.67
2019-01-06T22:32:01.098Z,36.37
2019-01-06T22:34:29.404Z,38.57
2019-01-06T22:37:14.631Z,40.47
2019-01-06T22:39:42.910Z,38.87
2019-01-06T22:42:17.071Z,44.03
2019-01-06T22:44:51.198Z,40.23
2019-01-06T22:47:22.296Z,50.70
2019-01-06T22:49:59.762Z,43.27
2019-01-06T22:52:28.088Z,46.87
2019-01-06T22:55:11.450Z,42.77
2019-01-06T22:57:42.353Z,47.13
2019-01-06T23:00:36.979Z,39.57
2019-01-06T23:03:22.021Z,39.70
2019-01-06T23:05:50.353Z,45.43
2019-01-06T23:08:18.630Z,41.27
2019-01-06T23:10:56.075Z,42.47
2019-01-06T23:13:36.442Z,38.23
2019-01-06T23:16:04.760Z,41.10
2019-01-06T23:18:33.173Z,40.57
2019-01-06T23:21:11.566Z,37.57
2019-01-06T23:23:39.880Z,38.80
2019-01-06T23:26:08.201Z,39.93
2019-01-06T23:28:36.508Z,38.60
2019-01-06T23:31:10.587Z,42.37
2019-01-06T23:33:38.933Z,39.90
2019-01-06T23:36:10.214Z,44.50
2019-01-06T23:38:53.552Z,41.73
2019-01-06T23:41:36.969Z,43.43
2019-01-06T23:44:17.259Z,40.47
2019-01-06T23:46:47.166Z,46.03
2019-01-06T23:49:21.040Z,43.27
2019-01-06T23:52:06.074Z,37.83
2019-01-06T23:54:40.433Z,41.00
2019-01-06T23:57:08.768Z,43.00
2019-01-06T23:59:43.290Z,48.13
